sensor_id;sensor_type;location;lat;lon;timestamp;pressure;altitude;pressure_sealevel;temperature;humidity
13765;BME280;6953;48.810;9.204;2022-07-29T00:01:49;98529.78;;;21.56;98.79
13765;BME280;6953;48.810;9.204;2022-07-29T00:04:14;98480.56;;;21.24;99.44
13765;BME280;6953;48.810;9.204;2022-07-29T00:06:40;98525.91;;;21.51;99.89
13765;BME280;6953;48.810;9.204;2022-07-29T00:09:05;98454.03;;;21.05;100.00
13765;BME280;6953;48.810;9.204;2022-07-29T00:11:31;98403.28;;;20.70;100.00
13765;BME280;6953;48.810;9.204;2022-07-29T00:13:56;98492.81;;;21.26;100.00
13765;BME280;6953;48.810;9.204;2022-07-29T00:16:22;98413.06;;;20.79;100.00
13765;BME280;6953;48.810;9.204;2022-07-29T00:18:48;98434.13;;;20.82;100.00
13765;BME280;6953;48.810;9.204;2022-07-29T00:21:13;98508.66;;;21.28;100.00
13765;BME280;6953;48.810;9.204;2022-07-29T00:23:39;98495.06;;;21.21;100.00
13765;BME280;6953;48.810;9.204;2022-07-29T00:26:04;98387.66;;;20.58;100.00
13765;BME280;6953;48.810;9.204;2022-07-29T00:28:30;98417.38;;;20.63;100.00
13765;BME280;6953;48.810;9.204;2022-07-29T00:30:55;98502.47;;;21.10;100.00
13765;BME280;6953;48.810;9.204;2022-07-29T00:33:20;98514.41;;;21.06;100.00
13765;BME280;6953;48.810;9.204;2022-07-29T00:35:47;98496.09;;;20.94;100.00
13765;BME280;6953;48.810;9.204;2022-07-29T00:38:14;98375.69;;;20.17;100.00
13765;BME280;6953;48.810;9.204;2022-07-29T00:40:40;98468.75;;;20.65;100.00
13765;BME280;6953;48.810;9.204;2022-07-29T00:43:06;98487.34;;;20.74;100.00
13765;BME280;6953;48.810;9.204;2022-07-29T00:45:32;98443.84;;;20.47;100.00
13765;BME280;6953;48.810;9.204;2022-07-29T00:47:58;98455.69;;;20.62;100.00
13765;BME280;6953;48.810;9.204;2022-07-29T00:50:23;98444.09;;;20.53;100.00
13765;BME280;6953;48.810;9.204;2022-07-29T00:52:49;98513.09;;;20.93;100.00
13765;BME280;6953;48.810;9.204;2022-07-29T00:55:16;98503.81;;;20.97;100.00
13765;BME280;6953;48.810;9.204;2022-07-29T00:57:42;98490.56;;;21.04;100.00
13765;BME280;6953;48.810;9.204;2022-07-29T01:00:11;98494.28;;;21.11;100.00
13765;BME280;6953;48.810;9.204;2022-07-29T01:02:36;98498.34;;;21.15;100.00
13765;BME280;6953;48.810;9.204;2022-07-29T01:05:04;98454.19;;;21.03;100.00
13765;BME280;6953;48.810;9.204;2022-07-29T01:07:34;98401.56;;;20.79;100.00
13765;BME280;6953;48.810;9.204;2022-07-29T01:10:01;98372.06;;;20.63;100.00
13765;BME280;6953;48.810;9.204;2022-07-29T01:12:29;98472.34;;;21.17;100.00
13765;BME280;6953;48.810;9.204;2022-07-29T01:14:58;98455.47;;;20.99;100.00
13765;BME280;6953;48.810;9.204;2022-07-29T01:20:18;98418.13;;;20.82;100.00
13765;BME280;6953;48.810;9.204;2022-07-29T01:29:03;98478.16;;;21.13;100.00
13765;BME280;6953;48.810;9.204;2022-07-29T01:31:45;98475.09;;;21.08;100.00
13765;BME280;6953;48.810;9.204;2022-07-29T01:34:21;98463.78;;;20.97;100.00
13765;BME280;6953;48.810;9.204;2022-07-29T01:36:52;98478.13;;;20.96;100.00
13765;BME280;6953;48.810;9.204;2022-07-29T01:39:25;98471.03;;;20.87;100.00
13765;BME280;6953;48.810;9.204;2022-07-29T01:45:02;98482.81;;;20.84;100.00
13765;BME280;6953;48.810;9.204;2022-07-29T01:48:04;98470.75;;;20.80;100.00
13765;BME280;6953;48.810;9.204;2022-07-29T01:50:36;98475.00;;;20.73;100.00
13765;BME280;6953;48.810;9.204;2022-07-29T01:53:09;98339.09;;;19.83;100.00
13765;BME280;6953;48.810;9.204;2022-07-29T01:55:42;98468.63;;;20.57;100.00
13765;BME280;6953;48.810;9.204;2022-07-29T01:58:10;98481.38;;;20.63;100.00
13765;BME280;6953;48.810;9.204;2022-07-29T02:00:37;98446.41;;;20.39;100.00
13765;BME280;6953;48.810;9.204;2022-07-29T02:03:07;98478.53;;;20.64;100.00
13765;BME280;6953;48.810;9.204;2022-07-29T02:05:35;98479.69;;;20.62;100.00
13765;BME280;6953;48.810;9.204;2022-07-29T02:08:02;98471.16;;;20.58;100.00
13765;BME280;6953;48.810;9.204;2022-07-29T02:10:29;98458.53;;;20.51;100.00
13765;BME280;6953;48.810;9.204;2022-07-29T02:12:57;98467.34;;;20.61;100.00
13765;BME280;6953;48.810;9.204;2022-07-29T02:15:24;98395.56;;;20.23;100.00
13765;BME280;6953;48.810;9.204;2022-07-29T02:17:55;98394.34;;;20.17;100.00
13765;BME280;6953;48.810;9.204;2022-07-29T02:20:22;98469.16;;;20.60;100.00
13765;BME280;6953;48.810;9.204;2022-07-29T02:22:52;98363.44;;;19.97;100.00
13765;BME280;6953;48.810;9.204;2022-07-29T02:25:18;98454.47;;;20.56;100.00
13765;BME280;6953;48.810;9.204;2022-07-29T02:27:46;98421.31;;;20.32;100.00
13765;BME280;6953;48.810;9.204;2022-07-29T02:30:13;98447.50;;;20.46;100.00
13765;BME280;6953;48.810;9.204;2022-07-29T02:32:40;98457.72;;;20.50;100.00
13765;BME280;6953;48.810;9.204;2022-07-29T02:35:08;98321.59;;;19.71;100.00
13765;BME280;6953;48.810;9.204;2022-07-29T02:37:35;98471.91;;;20.41;100.00
13765;BME280;6953;48.810;9.204;2022-07-29T02:40:02;98344.63;;;19.63;100.00
13765;BME280;6953;48.810;9.204;2022-07-29T02:42:28;98404.06;;;19.90;100.00
13765;BME280;6953;48.810;9.204;2022-07-29T02:44:54;98430.72;;;19.99;100.00
13765;BME280;6953;48.810;9.204;2022-07-29T02:47:52;98461.78;;;20.18;100.00
13765;BME280;6953;48.810;9.204;2022-07-29T02:50:29;98461.81;;;20.08;100.00
13765;BME280;6953;48.810;9.204;2022-07-29T02:53:07;98362.03;;;19.48;100.00
13765;BME280;6953;48.810;9.204;2022-07-29T02:55:40;98435.69;;;19.76;100.00
13765;BME280;6953;48.810;9.204;2022-07-29T02:58:24;98479.94;;;19.86;100.00
13765;BME280;6953;48.810;9.204;2022-07-29T03:00:55;98417.78;;;19.40;100.00
13765;BME280;6953;48.810;9.204;2022-07-29T03:03:22;98485.56;;;19.74;100.00
13765;BME280;6953;48.810;9.204;2022-07-29T03:05:54;98487.25;;;19.75;100.00
13765;BME280;6953;48.810;9.204;2022-07-29T03:08:20;98473.09;;;19.65;100.00
13765;BME280;6953;48.810;9.204;2022-07-29T03:10:47;98379.59;;;19.12;100.00
13765;BME280;6953;48.810;9.204;2022-07-29T03:13:13;98484.72;;;19.64;100.00
13765;BME280;6953;48.810;9.204;2022-07-29T03:15:39;98448.19;;;19.37;100.00
13765;BME280;6953;48.810;9.204;2022-07-29T03:18:07;98478.44;;;19.55;100.00
13765;BME280;6953;48.810;9.204;2022-07-29T03:20:33;98431.25;;;19.29;100.00
13765;BME280;6953;48.810;9.204;2022-07-29T03:22:58;98477.59;;;19.55;100.00
13765;BME280;6953;48.810;9.204;2022-07-29T03:25:24;98423.81;;;19.23;100.00
13765;BME280;6953;48.810;9.204;2022-07-29T03:27:49;98473.81;;;19.57;100.00
13765;BME280;6953;48.810;9.204;2022-07-29T03:30:15;98375.91;;;18.94;100.00
13765;BME280;6953;48.810;9.204;2022-07-29T03:32:41;98468.06;;;19.52;100.00
13765;BME280;6953;48.810;9.204;2022-07-29T03:35:07;98479.81;;;19.59;100.00
13765;BME280;6953;48.810;9.204;2022-07-29T03:37:32;98254.59;;;18.18;100.00
13765;BME280;6953;48.810;9.204;2022-07-29T03:40:00;98482.75;;;19.56;100.00
13765;BME280;6953;48.810;9.204;2022-07-29T03:42:29;98382.66;;;18.98;100.00
13765;BME280;6953;48.810;9.204;2022-07-29T03:44:57;98475.34;;;19.50;100.00
13765;BME280;6953;48.810;9.204;2022-07-29T03:47:27;98374.25;;;18.93;100.00
13765;BME280;6953;48.810;9.204;2022-07-29T03:49:59;98500.69;;;19.64;100.00
13765;BME280;6953;48.810;9.204;2022-07-29T03:52:25;98477.28;;;19.58;100.00
13765;BME280;6953;48.810;9.204;2022-07-29T03:54:50;98464.31;;;19.45;100.00
13765;BME280;6953;48.810;9.204;2022-07-29T03:57:18;98471.56;;;19.53;100.00
13765;BME280;6953;48.810;9.204;2022-07-29T03:59:45;98478.00;;;19.60;100.00
13765;BME280;6953;48.810;9.204;2022-07-29T04:02:12;98487.25;;;19.65;100.00
13765;BME280;6953;48.810;9.204;2022-07-29T04:04:38;98485.25;;;19.67;100.00
13765;BME280;6953;48.810;9.204;2022-07-29T04:07:04;98505.88;;;19.65;100.00
13765;BME280;6953;48.810;9.204;2022-07-29T04:09:29;98501.56;;;19.64;100.00
13765;BME280;6953;48.810;9.204;2022-07-29T04:11:55;98393.41;;;19.06;100.00
13765;BME280;6953;48.810;9.204;2022-07-29T04:14:20;98484.28;;;19.68;100.00
13765;BME280;6953;48.810;9.204;2022-07-29T04:16:46;98326.53;;;18.83;100.00
13765;BME280;6953;48.810;9.204;2022-07-29T04:19:11;98478.81;;;19.79;100.00
13765;BME280;6953;48.810;9.204;2022-07-29T04:21:40;98487.22;;;19.84;100.00
13765;BME280;6953;48.810;9.204;2022-07-29T04:24:06;98468.91;;;19.62;100.00
13765;BME280;6953;48.810;9.204;2022-07-29T04:26:32;98515.22;;;19.88;100.00
13765;BME280;6953;48.810;9.204;2022-07-29T04:28:58;98417.66;;;19.41;100.00
13765;BME280;6953;48.810;9.204;2022-07-29T04:31:23;98495.19;;;19.93;100.00
13765;BME280;6953;48.810;9.204;2022-07-29T04:33:48;98416.06;;;19.58;100.00
13765;BME280;6953;48.810;9.204;2022-07-29T04:36:14;98424.03;;;19.77;100.00
13765;BME280;6953;48.810;9.204;2022-07-29T04:38:39;98499.56;;;20.40;100.00
13765;BME280;6953;48.810;9.204;2022-07-29T04:41:05;98492.56;;;20.66;100.00
13765;BME280;6953;48.810;9.204;2022-07-29T04:43:32;98487.16;;;20.85;100.00
13765;BME280;6953;48.810;9.204;2022-07-29T04:45:58;98494.22;;;21.03;100.00
13765;BME280;6953;48.810;9.204;2022-07-29T04:48:24;98497.28;;;21.26;100.00
13765;BME280;6953;48.810;9.204;2022-07-29T04:50:50;98493.72;;;21.35;100.00
13765;BME280;6953;48.810;9.204;2022-07-29T04:53:15;98493.72;;;21.35;100.00
13765;BME280;6953;48.810;9.204;2022-07-29T04:55:40;98500.19;;;21.32;100.00
13765;BME280;6953;48.810;9.204;2022-07-29T04:58:06;98494.47;;;21.45;100.00
13765;BME280;6953;48.810;9.204;2022-07-29T05:00:32;98408.72;;;21.30;100.00
13765;BME280;6953;48.810;9.204;2022-07-29T05:02:58;98465.25;;;22.03;100.00
13765;BME280;6953;48.810;9.204;2022-07-29T05:05:23;98485.88;;;22.70;100.00
13765;BME280;6953;48.810;9.204;2022-07-29T05:07:48;98497.97;;;23.23;96.01
13765;BME280;6953;48.810;9.204;2022-07-29T05:10:14;98501.16;;;23.42;91.96
13765;BME280;6953;48.810;9.204;2022-07-29T05:12:39;98495.81;;;23.50;89.63
13765;BME280;6953;48.810;9.204;2022-07-29T05:15:05;98500.38;;;23.90;87.55
13765;BME280;6953;48.810;9.204;2022-07-29T05:17:30;98257.63;;;22.85;84.31
13765;BME280;6953;48.810;9.204;2022-07-29T05:19:56;98500.41;;;24.76;81.57
13765;BME280;6953;48.810;9.204;2022-07-29T05:22:21;98501.28;;;25.15;79.78
13765;BME280;6953;48.810;9.204;2022-07-29T05:24:47;98499.84;;;25.49;77.78
13765;BME280;6953;48.810;9.204;2022-07-29T05:27:12;98449.53;;;25.43;75.67
13765;BME280;6953;48.810;9.204;2022-07-29T05:29:38;98501.56;;;25.72;74.66
13765;BME280;6953;48.810;9.204;2022-07-29T05:32:04;98492.94;;;25.54;75.07
13765;BME280;6953;48.810;9.204;2022-07-29T05:34:29;98465.59;;;25.29;75.92
13765;BME280;6953;48.810;9.204;2022-07-29T05:36:55;98384.03;;;24.91;75.12
13765;BME280;6953;48.810;9.204;2022-07-29T05:39:20;98499.00;;;25.79;74.22
13765;BME280;6953;48.810;9.204;2022-07-29T05:41:45;98465.63;;;25.65;73.62
13765;BME280;6953;48.810;9.204;2022-07-29T05:44:11;98507.28;;;26.14;72.59
13765;BME280;6953;48.810;9.204;2022-07-29T05:46:38;98508.50;;;26.40;71.08
13765;BME280;6953;48.810;9.204;2022-07-29T05:49:03;98510.63;;;26.67;70.38
13765;BME280;6953;48.810;9.204;2022-07-29T05:51:29;98512.63;;;27.23;67.77
13765;BME280;6953;48.810;9.204;2022-07-29T05:53:55;98370.19;;;26.49;67.53
13765;BME280;6953;48.810;9.204;2022-07-29T05:56:20;98515.81;;;27.48;66.57
13765;BME280;6953;48.810;9.204;2022-07-29T05:58:45;98509.25;;;27.36;66.37
13765;BME280;6953;48.810;9.204;2022-07-29T06:01:11;98528.09;;;27.50;66.03
13765;BME280;6953;48.810;9.204;2022-07-29T06:03:36;98522.34;;;27.95;64.92
13765;BME280;6953;48.810;9.204;2022-07-29T06:06:03;98518.91;;;28.56;61.79
13765;BME280;6953;48.810;9.204;2022-07-29T06:08:28;98457.09;;;29.01;59.33
13765;BME280;6953;48.810;9.204;2022-07-29T06:10:54;98472.31;;;29.21;58.38
13765;BME280;6953;48.810;9.204;2022-07-29T06:13:19;98519.53;;;29.78;57.14
13765;BME280;6953;48.810;9.204;2022-07-29T06:15:44;98454.59;;;29.72;55.94
13765;BME280;6953;48.810;9.204;2022-07-29T06:18:10;98543.56;;;30.66;53.76
13765;BME280;6953;48.810;9.204;2022-07-29T06:20:35;98533.69;;;31.03;52.79
13765;BME280;6953;48.810;9.204;2022-07-29T06:23:01;98484.56;;;31.31;50.79
13765;BME280;6953;48.810;9.204;2022-07-29T06:25:29;98494.00;;;31.96;49.04
13765;BME280;6953;48.810;9.204;2022-07-29T06:27:55;98527.53;;;32.88;46.78
13765;BME280;6953;48.810;9.204;2022-07-29T06:30:21;98461.81;;;33.09;44.35
13765;BME280;6953;48.810;9.204;2022-07-29T06:32:47;98539.38;;;34.13;42.17
13765;BME280;6953;48.810;9.204;2022-07-29T06:35:12;98563.19;;;34.69;40.45
13765;BME280;6953;48.810;9.204;2022-07-29T06:37:37;98534.00;;;34.81;39.54
13765;BME280;6953;48.810;9.204;2022-07-29T06:40:03;98490.97;;;34.72;38.95
13765;BME280;6953;48.810;9.204;2022-07-29T06:42:47;98517.38;;;34.37;39.21
13765;BME280;6953;48.810;9.204;2022-07-29T06:45:12;98535.16;;;34.39;39.08
13765;BME280;6953;48.810;9.204;2022-07-29T06:47:38;98522.41;;;34.86;38.51
13765;BME280;6953;48.810;9.204;2022-07-29T06:50:04;98491.06;;;35.23;38.50
13765;BME280;6953;48.810;9.204;2022-07-29T06:52:30;98530.31;;;36.00;36.10
13765;BME280;6953;48.810;9.204;2022-07-29T06:54:55;98488.69;;;36.10;35.78
13765;BME280;6953;48.810;9.204;2022-07-29T06:57:21;98546.31;;;36.08;35.76
13765;BME280;6953;48.810;9.204;2022-07-29T06:59:47;98507.03;;;35.98;34.64
13765;BME280;6953;48.810;9.204;2022-07-29T07:02:12;98545.66;;;36.62;34.69
13765;BME280;6953;48.810;9.204;2022-07-29T07:04:38;98549.00;;;37.18;33.79
13765;BME280;6953;48.810;9.204;2022-07-29T07:07:03;98501.81;;;37.11;32.89
13765;BME280;6953;48.810;9.204;2022-07-29T07:09:29;98354.06;;;36.95;31.15
13765;BME280;6953;48.810;9.204;2022-07-29T07:11:54;98537.34;;;38.18;31.43
13765;BME280;6953;48.810;9.204;2022-07-29T07:14:19;98506.88;;;38.41;31.49
13765;BME280;6953;48.810;9.204;2022-07-29T07:16:44;98548.56;;;38.69;30.96
13765;BME280;6953;48.810;9.204;2022-07-29T07:19:10;98566.97;;;38.69;31.27
13765;BME280;6953;48.810;9.204;2022-07-29T07:21:35;98551.78;;;37.61;32.57
13765;BME280;6953;48.810;9.204;2022-07-29T07:24:00;98547.25;;;36.14;34.99
13765;BME280;6953;48.810;9.204;2022-07-29T07:26:26;98557.16;;;35.75;36.63
13765;BME280;6953;48.810;9.204;2022-07-29T07:28:52;98496.81;;;35.93;35.39
13765;BME280;6953;48.810;9.204;2022-07-29T07:31:18;98450.09;;;36.23;33.80
13765;BME280;6953;48.810;9.204;2022-07-29T07:33:43;98569.44;;;36.78;33.73
13765;BME280;6953;48.810;9.204;2022-07-29T07:36:08;98565.84;;;36.28;34.77
13765;BME280;6953;48.810;9.204;2022-07-29T07:38:34;98519.00;;;36.25;34.27
13765;BME280;6953;48.810;9.204;2022-07-29T07:41:00;98493.72;;;37.00;32.96
13765;BME280;6953;48.810;9.204;2022-07-29T07:43:26;98562.03;;;37.70;32.61
13765;BME280;6953;48.810;9.204;2022-07-29T07:45:51;98572.91;;;37.44;32.57
13765;BME280;6953;48.810;9.204;2022-07-29T07:48:16;98552.03;;;37.59;32.99
13765;BME280;6953;48.810;9.204;2022-07-29T07:50:42;98493.75;;;37.43;32.34
13765;BME280;6953;48.810;9.204;2022-07-29T07:53:08;98511.50;;;38.36;30.40
13765;BME280;6953;48.810;9.204;2022-07-29T07:55:39;98587.34;;;39.14;29.70
13765;BME280;6953;48.810;9.204;2022-07-29T07:58:05;98554.09;;;39.57;28.50
13765;BME280;6953;48.810;9.204;2022-07-29T08:00:30;98555.38;;;40.11;27.91
13765;BME280;6953;48.810;9.204;2022-07-29T08:02:57;98569.41;;;40.24;28.44
13765;BME280;6953;48.810;9.204;2022-07-29T08:05:22;98536.72;;;39.52;28.42
13765;BME280;6953;48.810;9.204;2022-07-29T08:07:48;98558.81;;;39.76;28.91
13765;BME280;6953;48.810;9.204;2022-07-29T08:10:15;98535.56;;;39.43;28.30
13765;BME280;6953;48.810;9.204;2022-07-29T08:13:04;98592.97;;;39.90;27.93
13765;BME280;6953;48.810;9.204;2022-07-29T08:15:30;98569.41;;;40.24;27.80
13765;BME280;6953;48.810;9.204;2022-07-29T08:17:55;98349.34;;;39.99;25.77
13765;BME280;6953;48.810;9.204;2022-07-29T08:20:21;98530.66;;;40.71;25.87
13765;BME280;6953;48.810;9.204;2022-07-29T08:22:46;98515.13;;;41.34;24.67
13765;BME280;6953;48.810;9.204;2022-07-29T08:25:12;98576.50;;;43.00;23.74
13765;BME280;6953;48.810;9.204;2022-07-29T08:27:37;98580.72;;;43.72;22.80
13765;BME280;6953;48.810;9.204;2022-07-29T08:30:03;98578.97;;;43.01;22.95
13765;BME280;6953;48.810;9.204;2022-07-29T08:32:28;98578.16;;;42.24;23.99
13765;BME280;6953;48.810;9.204;2022-07-29T08:34:54;98568.28;;;41.50;25.79
13765;BME280;6953;48.810;9.204;2022-07-29T08:37:19;98576.84;;;41.48;25.56
13765;BME280;6953;48.810;9.204;2022-07-29T08:39:46;98555.13;;;41.22;25.27
13765;BME280;6953;48.810;9.204;2022-07-29T08:42:14;98573.31;;;41.28;25.93
13765;BME280;6953;48.810;9.204;2022-07-29T08:44:42;98570.59;;;42.44;24.24
13765;BME280;6953;48.810;9.204;2022-07-29T08:47:09;98539.50;;;42.62;23.16
13765;BME280;6953;48.810;9.204;2022-07-29T08:49:35;98491.94;;;42.37;22.47
13765;BME280;6953;48.810;9.204;2022-07-29T08:52:01;98579.09;;;42.86;22.92
13765;BME280;6953;48.810;9.204;2022-07-29T08:54:28;98563.00;;;42.60;22.55
13765;BME280;6953;48.810;9.204;2022-07-29T08:56:54;98521.81;;;41.82;23.48
13765;BME280;6953;48.810;9.204;2022-07-29T08:59:22;98563.25;;;41.77;24.09
13765;BME280;6953;48.810;9.204;2022-07-29T09:01:48;98461.81;;;40.90;24.07
13765;BME280;6953;48.810;9.204;2022-07-29T09:04:16;98564.16;;;42.15;23.49
13765;BME280;6953;48.810;9.204;2022-07-29T09:06:44;98574.84;;;42.65;22.36
13765;BME280;6953;48.810;9.204;2022-07-29T09:09:12;98560.09;;;43.36;21.14
13765;BME280;6953;48.810;9.204;2022-07-29T09:11:39;98581.91;;;43.66;21.07
13765;BME280;6953;48.810;9.204;2022-07-29T09:14:04;98557.63;;;43.35;21.38
13765;BME280;6953;48.810;9.204;2022-07-29T09:16:50;98580.03;;;43.62;19.38
13765;BME280;6953;48.810;9.204;2022-07-29T09:19:23;98593.56;;;44.05;18.77
13765;BME280;6953;48.810;9.204;2022-07-29T09:21:49;98594.94;;;44.63;18.16
13765;BME280;6953;48.810;9.204;2022-07-29T09:24:36;98532.66;;;44.60;17.71
13765;BME280;6953;48.810;9.204;2022-07-29T09:27:21;98548.84;;;44.53;17.43
13765;BME280;6953;48.810;9.204;2022-07-29T09:30:16;98418.81;;;44.30;17.93
13765;BME280;6953;48.810;9.204;2022-07-29T09:33:00;98588.47;;;45.63;16.99
13765;BME280;6953;48.810;9.204;2022-07-29T09:35:27;98554.38;;;45.04;17.78
13765;BME280;6953;48.810;9.204;2022-07-29T09:37:53;98590.47;;;44.99;17.53
13765;BME280;6953;48.810;9.204;2022-07-29T09:40:24;98584.34;;;46.14;16.56
13765;BME280;6953;48.810;9.204;2022-07-29T09:42:51;98586.72;;;47.30;15.54
13765;BME280;6953;48.810;9.204;2022-07-29T09:45:30;98584.00;;;47.08;15.06
13765;BME280;6953;48.810;9.204;2022-07-29T09:47:56;98565.69;;;46.63;15.48
13765;BME280;6953;48.810;9.204;2022-07-29T09:50:39;98576.22;;;46.75;15.72
13765;BME280;6953;48.810;9.204;2022-07-29T09:53:05;98562.00;;;47.20;15.07
13765;BME280;6953;48.810;9.204;2022-07-29T09:55:30;98561.50;;;47.57;15.62
13765;BME280;6953;48.810;9.204;2022-07-29T09:58:15;98477.66;;;45.26;16.80
13765;BME280;6953;48.810;9.204;2022-07-29T10:00:42;98493.66;;;45.02;16.97
13765;BME280;6953;48.810;9.204;2022-07-29T10:03:08;98530.56;;;45.30;17.55
13765;BME280;6953;48.810;9.204;2022-07-29T10:05:34;98558.38;;;44.29;18.72
13765;BME280;6953;48.810;9.204;2022-07-29T10:07:59;98540.13;;;42.59;20.08
13765;BME280;6953;48.810;9.204;2022-07-29T10:10:31;98525.75;;;41.71;20.64
13765;BME280;6953;48.810;9.204;2022-07-29T10:13:00;98545.81;;;40.73;21.83
13765;BME280;6953;48.810;9.204;2022-07-29T10:15:31;98530.72;;;39.60;24.00
13765;BME280;6953;48.810;9.204;2022-07-29T10:18:05;98534.75;;;38.64;25.39
13765;BME280;6953;48.810;9.204;2022-07-29T10:20:31;98472.50;;;37.76;27.00
13765;BME280;6953;48.810;9.204;2022-07-29T10:22:56;98441.66;;;37.64;26.71
13765;BME280;6953;48.810;9.204;2022-07-29T10:25:23;98514.34;;;37.71;27.27
13765;BME280;6953;48.810;9.204;2022-07-29T10:27:50;98446.28;;;36.40;29.02
13765;BME280;6953;48.810;9.204;2022-07-29T10:30:22;98480.44;;;35.77;31.07
13765;BME280;6953;48.810;9.204;2022-07-29T10:33:17;98521.09;;;35.00;32.98
13765;BME280;6953;48.810;9.204;2022-07-29T10:43:57;98449.63;;;31.85;39.75
13765;BME280;6953;48.810;9.204;2022-07-29T10:46:24;98387.34;;;30.90;41.06
13765;BME280;6953;48.810;9.204;2022-07-29T10:49:15;98520.75;;;31.12;42.01
13765;BME280;6953;48.810;9.204;2022-07-29T10:59:50;98484.97;;;28.74;49.99
13765;BME280;6953;48.810;9.204;2022-07-29T11:05:02;98539.81;;;27.63;55.83
13765;BME280;6953;48.810;9.204;2022-07-29T11:07:29;98556.47;;;27.03;60.51
13765;BME280;6953;48.810;9.204;2022-07-29T11:15:05;98547.16;;;25.35;74.00
13765;BME280;6953;48.810;9.204;2022-07-29T11:34:16;98581.09;;;22.88;93.69
13765;BME280;6953;48.810;9.204;2022-07-29T11:45:01;98560.28;;;22.23;95.98
13765;BME280;6953;48.810;9.204;2022-07-29T11:47:31;98580.34;;;22.27;97.28
13765;BME280;6953;48.810;9.204;2022-07-29T11:49:59;98516.06;;;21.86;97.82
13765;BME280;6953;48.810;9.204;2022-07-29T11:52:38;98503.22;;;21.90;96.73
13765;BME280;6953;48.810;9.204;2022-07-29T11:55:10;98587.25;;;22.30;97.05
13765;BME280;6953;48.810;9.204;2022-07-29T11:57:36;98585.19;;;22.41;98.23
13765;BME280;6953;48.810;9.204;2022-07-29T12:00:04;98418.25;;;21.68;96.28
13765;BME280;6953;48.810;9.204;2022-07-29T12:02:41;98482.63;;;22.00;95.23
13765;BME280;6953;48.810;9.204;2022-07-29T12:05:08;98474.91;;;22.22;94.77
13765;BME280;6953;48.810;9.204;2022-07-29T12:07:34;98512.69;;;23.19;88.82
13765;BME280;6953;48.810;9.204;2022-07-29T12:10:00;98573.06;;;24.26;83.36
13765;BME280;6953;48.810;9.204;2022-07-29T12:12:26;98545.72;;;24.71;76.31
13765;BME280;6953;48.810;9.204;2022-07-29T12:14:52;98538.53;;;25.02;72.57
13765;BME280;6953;48.810;9.204;2022-07-29T12:19:55;98550.47;;;25.98;66.57
13765;BME280;6953;48.810;9.204;2022-07-29T12:22:32;98533.25;;;27.16;60.80
13765;BME280;6953;48.810;9.204;2022-07-29T12:25:06;98513.63;;;29.02;54.78
13765;BME280;6953;48.810;9.204;2022-07-29T12:27:32;98571.72;;;29.53;52.83
13765;BME280;6953;48.810;9.204;2022-07-29T12:30:16;98535.69;;;29.53;49.58
13765;BME280;6953;48.810;9.204;2022-07-29T12:32:45;98490.22;;;28.82;51.53
13765;BME280;6953;48.810;9.204;2022-07-29T12:35:13;98565.72;;;28.62;54.08
13765;BME280;6953;48.810;9.204;2022-07-29T12:37:41;98566.59;;;28.21;56.19
13765;BME280;6953;48.810;9.204;2022-07-29T12:40:08;98490.44;;;27.42;57.13
13765;BME280;6953;48.810;9.204;2022-07-29T12:42:34;98549.56;;;27.44;58.07
13765;BME280;6953;48.810;9.204;2022-07-29T12:45:00;98469.28;;;26.75;59.21
13765;BME280;6953;48.810;9.204;2022-07-29T12:47:27;98575.91;;;27.13;60.46
13765;BME280;6953;48.810;9.204;2022-07-29T12:50:11;98497.16;;;26.53;62.33
13765;BME280;6953;48.810;9.204;2022-07-29T12:52:37;98490.13;;;26.15;64.18
13765;BME280;6953;48.810;9.204;2022-07-29T12:55:03;98569.09;;;26.37;65.17
13765;BME280;6953;48.810;9.204;2022-07-29T12:57:28;98540.81;;;26.04;66.29
13765;BME280;6953;48.810;9.204;2022-07-29T13:00:09;98522.34;;;25.78;66.95
13765;BME280;6953;48.810;9.204;2022-07-29T13:02:36;98506.75;;;25.51;67.57
13765;BME280;6953;48.810;9.204;2022-07-29T13:05:04;98493.09;;;25.00;69.38
13765;BME280;6953;48.810;9.204;2022-07-29T13:07:32;98375.75;;;23.70;71.62
13765;BME280;6953;48.810;9.204;2022-07-29T13:10:15;98513.06;;;24.51;73.34
13765;BME280;6953;48.810;9.204;2022-07-29T13:13:12;98578.00;;;24.93;72.74
13765;BME280;6953;48.810;9.204;2022-07-29T13:15:40;98559.59;;;24.82;71.95
13765;BME280;6953;48.810;9.204;2022-07-29T13:18:26;98491.78;;;24.34;71.60
13765;BME280;6953;48.810;9.204;2022-07-29T13:20:52;98519.91;;;24.46;72.08
13765;BME280;6953;48.810;9.204;2022-07-29T13:23:17;98564.56;;;24.47;73.64
13765;BME280;6953;48.810;9.204;2022-07-29T13:25:43;98604.44;;;24.18;76.89
13765;BME280;6953;48.810;9.204;2022-07-29T13:28:08;98590.59;;;23.49;82.44
13765;BME280;6953;48.810;9.204;2022-07-29T13:30:33;98608.28;;;23.01;87.24
13765;BME280;6953;48.810;9.204;2022-07-29T13:32:59;98587.84;;;22.67;90.70
13765;BME280;6953;48.810;9.204;2022-07-29T13:35:24;98513.94;;;22.15;93.46
13765;BME280;6953;48.810;9.204;2022-07-29T13:37:50;98582.72;;;22.48;95.41
13765;BME280;6953;48.810;9.204;2022-07-29T13:40:15;98504.28;;;21.97;97.59
13765;BME280;6953;48.810;9.204;2022-07-29T13:42:42;98547.22;;;22.38;99.11
13765;BME280;6953;48.810;9.204;2022-07-29T13:45:09;98557.66;;;22.49;100.00
13765;BME280;6953;48.810;9.204;2022-07-29T13:47:35;98544.97;;;22.51;100.00
13765;BME280;6953;48.810;9.204;2022-07-29T13:50:01;98538.44;;;22.53;100.00
13765;BME280;6953;48.810;9.204;2022-07-29T13:52:26;98409.09;;;21.96;100.00
13765;BME280;6953;48.810;9.204;2022-07-29T13:54:52;98554.66;;;23.11;100.00
13765;BME280;6953;48.810;9.204;2022-07-29T13:57:17;98496.16;;;22.90;100.00
13765;BME280;6953;48.810;9.204;2022-07-29T13:59:44;98530.28;;;23.29;98.33
13765;BME280;6953;48.810;9.204;2022-07-29T14:02:11;98489.25;;;23.21;97.86
13765;BME280;6953;48.810;9.204;2022-07-29T14:04:37;98538.53;;;23.76;97.11
13765;BME280;6953;48.810;9.204;2022-07-29T14:07:03;98546.06;;;24.60;91.57
13765;BME280;6953;48.810;9.204;2022-07-29T14:09:29;98479.69;;;25.31;85.88
13765;BME280;6953;48.810;9.204;2022-07-29T14:11:55;98434.03;;;25.90;81.68
13765;BME280;6953;48.810;9.204;2022-07-29T14:14:21;98494.06;;;26.85;77.51
13765;BME280;6953;48.810;9.204;2022-07-29T14:16:46;98512.78;;;27.36;75.59